sensor_id;sensor_type;location;lat;lon;timestamp;P1;durP1;ratioP1;P2;durP2;ratioP2
9541;SDS011;4809;48.224;8.572;2024-01-30T00:00:21;9.90;;;7.53;;
9541;SDS011;4809;48.224;8.572;2024-01-30T00:02:47;9.90;;;7.00;;
9541;SDS011;4809;48.224;8.572;2024-01-30T00:05:12;9.50;;;6.90;;
9541;SDS011;4809;48.224;8.572;2024-01-30T00:07:38;9.40;;;7.00;;
9541;SDS011;4809;48.224;8.572;2024-01-30T00:10:03;9.00;;;6.67;;
9541;SDS011;4809;48.224;8.572;2024-01-30T00:12:29;9.67;;;6.57;;
9541;SDS011;4809;48.224;8.572;2024-01-30T00:14:56;10.17;;;7.47;;
9541;SDS011;4809;48.224;8.572;2024-01-30T00:17:21;9.70;;;7.27;;
9541;SDS011;4809;48.224;8.572;2024-01-30T00:19:47;10.03;;;7.43;;
9541;SDS011;4809;48.224;8.572;2024-01-30T00:22:12;8.70;;;6.73;;
9541;SDS011;4809;48.224;8.572;2024-01-30T00:24:37;8.60;;;6.20;;
9541;SDS011;4809;48.224;8.572;2024-01-30T00:27:03;9.90;;;6.67;;
9541;SDS011;4809;48.224;8.572;2024-01-30T00:29:28;9.17;;;6.27;;
9541;SDS011;4809;48.224;8.572;2024-01-30T00:31:56;7.93;;;6.00;;
9541;SDS011;4809;48.224;8.572;2024-01-30T00:34:21;9.00;;;6.00;;
9541;SDS011;4809;48.224;8.572;2024-01-30T00:36:47;8.33;;;5.77;;
9541;SDS011;4809;48.224;8.572;2024-01-30T00:39:13;7.40;;;5.40;;
9541;SDS011;4809;48.224;8.572;2024-01-30T00:41:40;7.50;;;5.80;;
9541;SDS011;4809;48.224;8.572;2024-01-30T00:44:06;7.53;;;5.33;;
9541;SDS011;4809;48.224;8.572;2024-01-30T00:46:31;7.40;;;5.60;;
9541;SDS011;4809;48.224;8.572;2024-01-30T00:48:57;6.70;;;5.33;;
9541;SDS011;4809;48.224;8.572;2024-01-30T00:51:22;6.80;;;5.20;;
9541;SDS011;4809;48.224;8.572;2024-01-30T00:53:47;6.30;;;4.90;;
9541;SDS011;4809;48.224;8.572;2024-01-30T00:56:13;7.07;;;4.40;;
9541;SDS011;4809;48.224;8.572;2024-01-30T00:58:38;6.77;;;4.73;;
9541;SDS011;4809;48.224;8.572;2024-01-30T01:01:04;6.90;;;4.70;;
9541;SDS011;4809;48.224;8.572;2024-01-30T01:03:29;6.60;;;4.70;;
9541;SDS011;4809;48.224;8.572;2024-01-30T01:05:55;6.50;;;4.63;;
9541;SDS011;4809;48.224;8.572;2024-01-30T01:08:20;6.17;;;4.90;;
9541;SDS011;4809;48.224;8.572;2024-01-30T01:10:45;7.00;;;4.53;;
9541;SDS011;4809;48.224;8.572;2024-01-30T01:13:11;8.37;;;4.40;;
9541;SDS011;4809;48.224;8.572;2024-01-30T01:15:36;5.33;;;4.10;;
9541;SDS011;4809;48.224;8.572;2024-01-30T01:18:02;6.57;;;4.30;;
9541;SDS011;4809;48.224;8.572;2024-01-30T01:20:27;5.67;;;3.97;;
9541;SDS011;4809;48.224;8.572;2024-01-30T01:22:54;5.37;;;4.07;;
9541;SDS011;4809;48.224;8.572;2024-01-30T01:25:21;5.03;;;3.73;;
9541;SDS011;4809;48.224;8.572;2024-01-30T01:27:46;5.53;;;3.80;;
9541;SDS011;4809;48.224;8.572;2024-01-30T01:30:16;4.87;;;3.80;;
9541;SDS011;4809;48.224;8.572;2024-01-30T01:32:46;5.10;;;3.70;;
9541;SDS011;4809;48.224;8.572;2024-01-30T01:35:26;4.60;;;3.47;;
9541;SDS011;4809;48.224;8.572;2024-01-30T01:37:52;4.70;;;3.37;;
9541;SDS011;4809;48.224;8.572;2024-01-30T01:40:26;4.80;;;3.60;;
9541;SDS011;4809;48.224;8.572;2024-01-30T01:43:05;4.10;;;3.50;;
9541;SDS011;4809;48.224;8.572;2024-01-30T01:45:31;6.57;;;4.00;;
9541;SDS011;4809;48.224;8.572;2024-01-30T01:47:56;5.17;;;4.10;;
9541;SDS011;4809;48.224;8.572;2024-01-30T01:50:21;4.40;;;3.70;;
9541;SDS011;4809;48.224;8.572;2024-01-30T01:52:48;5.50;;;3.80;;
9541;SDS011;4809;48.224;8.572;2024-01-30T01:55:14;4.90;;;3.97;;
9541;SDS011;4809;48.224;8.572;2024-01-30T01:57:41;4.93;;;3.77;;
9541;SDS011;4809;48.224;8.572;2024-01-30T02:00:07;5.77;;;3.87;;
9541;SDS011;4809;48.224;8.572;2024-01-30T02:02:35;6.67;;;3.90;;
9541;SDS011;4809;48.224;8.572;2024-01-30T02:05:02;5.50;;;3.80;;
9541;SDS011;4809;48.224;8.572;2024-01-30T02:07:28;5.30;;;3.90;;
9541;SDS011;4809;48.224;8.572;2024-01-30T02:09:53;4.90;;;3.73;;
9541;SDS011;4809;48.224;8.572;2024-01-30T02:12:19;5.33;;;4.03;;
9541;SDS011;4809;48.224;8.572;2024-01-30T02:14:45;5.40;;;4.00;;
9541;SDS011;4809;48.224;8.572;2024-01-30T02:17:11;4.80;;;3.70;;
9541;SDS011;4809;48.224;8.572;2024-01-30T02:19:37;6.23;;;3.97;;
9541;SDS011;4809;48.224;8.572;2024-01-30T02:22:03;5.47;;;4.03;;
9541;SDS011;4809;48.224;8.572;2024-01-30T02:24:28;4.43;;;3.73;;
9541;SDS011;4809;48.224;8.572;2024-01-30T02:26:54;3.63;;;3.07;;
9541;SDS011;4809;48.224;8.572;2024-01-30T02:29:20;4.67;;;3.43;;
9541;SDS011;4809;48.224;8.572;2024-01-30T02:31:45;4.47;;;3.43;;
9541;SDS011;4809;48.224;8.572;2024-01-30T02:34:11;4.60;;;3.53;;
9541;SDS011;4809;48.224;8.572;2024-01-30T02:36:36;4.33;;;3.50;;
9541;SDS011;4809;48.224;8.572;2024-01-30T02:39:02;4.67;;;3.27;;
9541;SDS011;4809;48.224;8.572;2024-01-30T02:41:28;4.10;;;3.20;;
9541;SDS011;4809;48.224;8.572;2024-01-30T02:43:53;4.10;;;3.13;;
9541;SDS011;4809;48.224;8.572;2024-01-30T02:46:19;6.13;;;3.47;;
9541;SDS011;4809;48.224;8.572;2024-01-30T02:48:44;5.10;;;3.50;;
9541;SDS011;4809;48.224;8.572;2024-01-30T02:51:09;5.17;;;3.27;;
9541;SDS011;4809;48.224;8.572;2024-01-30T02:53:35;4.80;;;3.30;;
9541;SDS011;4809;48.224;8.572;2024-01-30T02:56:01;4.77;;;3.37;;
9541;SDS011;4809;48.224;8.572;2024-01-30T02:58:30;4.67;;;3.10;;
9541;SDS011;4809;48.224;8.572;2024-01-30T03:00:56;3.80;;;3.10;;
9541;SDS011;4809;48.224;8.572;2024-01-30T03:03:21;4.23;;;3.43;;
9541;SDS011;4809;48.224;8.572;2024-01-30T03:05:46;4.37;;;3.37;;
9541;SDS011;4809;48.224;8.572;2024-01-30T03:08:12;3.57;;;2.90;;
9541;SDS011;4809;48.224;8.572;2024-01-30T03:10:38;4.60;;;3.40;;
9541;SDS011;4809;48.224;8.572;2024-01-30T03:13:04;4.37;;;3.20;;
9541;SDS011;4809;48.224;8.572;2024-01-30T03:15:29;4.27;;;3.07;;
9541;SDS011;4809;48.224;8.572;2024-01-30T03:17:54;3.53;;;2.93;;
9541;SDS011;4809;48.224;8.572;2024-01-30T03:20:20;3.20;;;2.90;;
9541;SDS011;4809;48.224;8.572;2024-01-30T03:22:45;3.93;;;3.03;;
9541;SDS011;4809;48.224;8.572;2024-01-30T03:25:10;4.20;;;3.27;;
9541;SDS011;4809;48.224;8.572;2024-01-30T03:27:36;3.67;;;3.20;;
9541;SDS011;4809;48.224;8.572;2024-01-30T03:30:01;3.70;;;3.27;;
9541;SDS011;4809;48.224;8.572;2024-01-30T03:32:27;4.07;;;3.10;;
9541;SDS011;4809;48.224;8.572;2024-01-30T03:34:53;5.33;;;3.30;;
9541;SDS011;4809;48.224;8.572;2024-01-30T03:37:19;5.03;;;3.73;;
9541;SDS011;4809;48.224;8.572;2024-01-30T03:39:45;6.30;;;4.07;;
9541;SDS011;4809;48.224;8.572;2024-01-30T03:42:10;5.53;;;3.90;;
9541;SDS011;4809;48.224;8.572;2024-01-30T03:44:35;5.27;;;3.97;;
9541;SDS011;4809;48.224;8.572;2024-01-30T03:47:01;5.23;;;4.13;;
9541;SDS011;4809;48.224;8.572;2024-01-30T03:49:26;4.80;;;3.93;;
9541;SDS011;4809;48.224;8.572;2024-01-30T03:51:51;6.97;;;4.97;;
9541;SDS011;4809;48.224;8.572;2024-01-30T03:54:17;6.33;;;4.30;;
9541;SDS011;4809;48.224;8.572;2024-01-30T03:56:42;6.40;;;4.60;;
9541;SDS011;4809;48.224;8.572;2024-01-30T03:59:07;7.87;;;5.07;;
9541;SDS011;4809;48.224;8.572;2024-01-30T04:01:33;6.03;;;4.23;;
9541;SDS011;4809;48.224;8.572;2024-01-30T04:03:58;5.97;;;4.63;;
9541;SDS011;4809;48.224;8.572;2024-01-30T04:06:23;6.07;;;4.50;;
9541;SDS011;4809;48.224;8.572;2024-01-30T04:08:50;7.40;;;4.93;;
9541;SDS011;4809;48.224;8.572;2024-01-30T04:11:17;7.80;;;5.07;;
9541;SDS011;4809;48.224;8.572;2024-01-30T04:13:44;8.27;;;5.50;;
9541;SDS011;4809;48.224;8.572;2024-01-30T04:16:18;8.00;;;5.43;;
9541;SDS011;4809;48.224;8.572;2024-01-30T04:18:47;8.00;;;5.80;;
9541;SDS011;4809;48.224;8.572;2024-01-30T04:21:12;8.00;;;5.57;;
9541;SDS011;4809;48.224;8.572;2024-01-30T04:23:39;8.37;;;5.93;;
9541;SDS011;4809;48.224;8.572;2024-01-30T04:26:06;9.93;;;6.20;;
9541;SDS011;4809;48.224;8.572;2024-01-30T04:28:31;9.57;;;6.30;;
9541;SDS011;4809;48.224;8.572;2024-01-30T04:30:57;8.70;;;5.87;;
9541;SDS011;4809;48.224;8.572;2024-01-30T04:33:22;7.93;;;5.93;;
9541;SDS011;4809;48.224;8.572;2024-01-30T04:35:48;8.23;;;6.17;;
9541;SDS011;4809;48.224;8.572;2024-01-30T04:38:13;7.83;;;6.07;;
9541;SDS011;4809;48.224;8.572;2024-01-30T04:40:39;9.10;;;6.30;;
9541;SDS011;4809;48.224;8.572;2024-01-30T04:43:05;8.40;;;6.23;;
9541;SDS011;4809;48.224;8.572;2024-01-30T04:45:30;8.13;;;6.40;;
9541;SDS011;4809;48.224;8.572;2024-01-30T04:47:56;8.60;;;6.43;;
9541;SDS011;4809;48.224;8.572;2024-01-30T04:50:21;9.40;;;6.03;;
9541;SDS011;4809;48.224;8.572;2024-01-30T04:52:46;8.10;;;5.80;;
9541;SDS011;4809;48.224;8.572;2024-01-30T04:55:12;8.30;;;6.00;;
9541;SDS011;4809;48.224;8.572;2024-01-30T04:57:37;8.17;;;6.13;;
9541;SDS011;4809;48.224;8.572;2024-01-30T05:00:03;8.53;;;6.00;;
9541;SDS011;4809;48.224;8.572;2024-01-30T05:02:28;10.93;;;7.13;;
9541;SDS011;4809;48.224;8.572;2024-01-30T05:04:54;8.83;;;6.27;;
9541;SDS011;4809;48.224;8.572;2024-01-30T05:07:19;8.90;;;6.50;;
9541;SDS011;4809;48.224;8.572;2024-01-30T05:09:45;10.20;;;6.70;;
9541;SDS011;4809;48.224;8.572;2024-01-30T05:12:10;10.67;;;7.10;;
9541;SDS011;4809;48.224;8.572;2024-01-30T05:14:35;10.87;;;6.93;;
9541;SDS011;4809;48.224;8.572;2024-01-30T05:17:01;10.13;;;7.13;;
9541;SDS011;4809;48.224;8.572;2024-01-30T05:19:28;10.23;;;7.17;;
9541;SDS011;4809;48.224;8.572;2024-01-30T05:21:53;10.83;;;7.77;;
9541;SDS011;4809;48.224;8.572;2024-01-30T05:24:18;11.00;;;7.20;;
9541;SDS011;4809;48.224;8.572;2024-01-30T05:26:44;10.23;;;7.40;;
9541;SDS011;4809;48.224;8.572;2024-01-30T05:29:09;11.63;;;7.50;;
9541;SDS011;4809;48.224;8.572;2024-01-30T05:31:35;10.37;;;7.37;;
9541;SDS011;4809;48.224;8.572;2024-01-30T05:34:00;10.63;;;6.93;;
9541;SDS011;4809;48.224;8.572;2024-01-30T05:36:25;11.13;;;7.40;;
9541;SDS011;4809;48.224;8.572;2024-01-30T05:38:51;11.43;;;7.80;;
9541;SDS011;4809;48.224;8.572;2024-01-30T05:41:16;10.50;;;7.30;;
9541;SDS011;4809;48.224;8.572;2024-01-30T05:43:42;10.27;;;7.07;;
9541;SDS011;4809;48.224;8.572;2024-01-30T05:46:07;10.97;;;7.17;;
9541;SDS011;4809;48.224;8.572;2024-01-30T05:48:32;11.33;;;7.17;;
9541;SDS011;4809;48.224;8.572;2024-01-30T05:51:00;10.73;;;7.60;;
9541;SDS011;4809;48.224;8.572;2024-01-30T05:53:25;10.00;;;6.93;;
9541;SDS011;4809;48.224;8.572;2024-01-30T05:55:51;10.87;;;7.57;;
9541;SDS011;4809;48.224;8.572;2024-01-30T05:58:16;10.53;;;7.20;;
9541;SDS011;4809;48.224;8.572;2024-01-30T06:00:42;9.90;;;6.53;;
9541;SDS011;4809;48.224;8.572;2024-01-30T06:03:07;12.33;;;7.33;;
9541;SDS011;4809;48.224;8.572;2024-01-30T06:05:32;10.10;;;6.80;;
9541;SDS011;4809;48.224;8.572;2024-01-30T06:07:58;14.60;;;11.57;;
9541;SDS011;4809;48.224;8.572;2024-01-30T06:10:23;12.27;;;8.60;;
9541;SDS011;4809;48.224;8.572;2024-01-30T06:12:48;13.43;;;8.73;;
9541;SDS011;4809;48.224;8.572;2024-01-30T06:15:14;10.93;;;7.50;;
9541;SDS011;4809;48.224;8.572;2024-01-30T06:17:40;11.53;;;7.27;;
9541;SDS011;4809;48.224;8.572;2024-01-30T06:20:05;10.23;;;6.70;;
9541;SDS011;4809;48.224;8.572;2024-01-30T06:22:31;9.33;;;6.43;;
9541;SDS011;4809;48.224;8.572;2024-01-30T06:24:57;9.03;;;6.50;;
9541;SDS011;4809;48.224;8.572;2024-01-30T06:27:22;9.80;;;7.27;;
9541;SDS011;4809;48.224;8.572;2024-01-30T06:29:47;9.10;;;6.50;;
9541;SDS011;4809;48.224;8.572;2024-01-30T06:32:13;9.37;;;7.20;;
9541;SDS011;4809;48.224;8.572;2024-01-30T06:34:38;10.23;;;6.83;;
9541;SDS011;4809;48.224;8.572;2024-01-30T06:37:05;9.60;;;6.87;;
9541;SDS011;4809;48.224;8.572;2024-01-30T06:39:30;9.37;;;6.60;;
9541;SDS011;4809;48.224;8.572;2024-01-30T06:41:55;8.93;;;6.87;;
9541;SDS011;4809;48.224;8.572;2024-01-30T06:44:21;12.30;;;7.67;;
9541;SDS011;4809;48.224;8.572;2024-01-30T06:46:46;8.77;;;6.83;;
9541;SDS011;4809;48.224;8.572;2024-01-30T06:49:12;10.00;;;6.50;;
9541;SDS011;4809;48.224;8.572;2024-01-30T06:51:37;8.90;;;6.23;;
9541;SDS011;4809;48.224;8.572;2024-01-30T06:54:04;10.10;;;6.17;;
9541;SDS011;4809;48.224;8.572;2024-01-30T06:56:29;9.90;;;6.33;;
9541;SDS011;4809;48.224;8.572;2024-01-30T06:58:55;10.30;;;5.83;;
9541;SDS011;4809;48.224;8.572;2024-01-30T07:01:20;8.00;;;5.60;;
9541;SDS011;4809;48.224;8.572;2024-01-30T07:03:46;10.87;;;6.60;;
9541;SDS011;4809;48.224;8.572;2024-01-30T07:06:11;9.57;;;7.17;;
9541;SDS011;4809;48.224;8.572;2024-01-30T07:08:37;9.07;;;6.30;;
9541;SDS011;4809;48.224;8.572;2024-01-30T07:11:05;16.17;;;10.43;;
9541;SDS011;4809;48.224;8.572;2024-01-30T07:13:31;14.07;;;8.30;;
9541;SDS011;4809;48.224;8.572;2024-01-30T07:15:58;11.83;;;7.70;;
9541;SDS011;4809;48.224;8.572;2024-01-30T07:18:23;14.67;;;8.93;;
9541;SDS011;4809;48.224;8.572;2024-01-30T07:20:49;21.70;;;11.90;;
9541;SDS011;4809;48.224;8.572;2024-01-30T07:23:15;22.10;;;12.90;;
9541;SDS011;4809;48.224;8.572;2024-01-30T07:25:42;21.20;;;12.90;;
9541;SDS011;4809;48.224;8.572;2024-01-30T07:28:13;21.83;;;14.03;;
9541;SDS011;4809;48.224;8.572;2024-01-30T07:30:41;23.57;;;14.13;;
9541;SDS011;4809;48.224;8.572;2024-01-30T07:33:07;24.27;;;16.13;;
9541;SDS011;4809;48.224;8.572;2024-01-30T07:35:33;26.90;;;17.20;;
9541;SDS011;4809;48.224;8.572;2024-01-30T07:37:58;19.60;;;11.93;;
9541;SDS011;4809;48.224;8.572;2024-01-30T07:40:24;17.27;;;11.90;;
9541;SDS011;4809;48.224;8.572;2024-01-30T07:42:49;10.37;;;7.30;;
9541;SDS011;4809;48.224;8.572;2024-01-30T07:45:14;10.70;;;6.80;;
9541;SDS011;4809;48.224;8.572;2024-01-30T07:47:40;7.93;;;6.00;;
9541;SDS011;4809;48.224;8.572;2024-01-30T07:50:07;7.53;;;5.20;;
9541;SDS011;4809;48.224;8.572;2024-01-30T07:52:33;7.17;;;5.00;;
9541;SDS011;4809;48.224;8.572;2024-01-30T07:54:59;6.50;;;5.07;;
9541;SDS011;4809;48.224;8.572;2024-01-30T07:57:24;8.03;;;5.17;;
9541;SDS011;4809;48.224;8.572;2024-01-30T07:59:51;8.07;;;5.60;;
9541;SDS011;4809;48.224;8.572;2024-01-30T08:02:16;7.30;;;4.93;;
9541;SDS011;4809;48.224;8.572;2024-01-30T08:04:42;7.20;;;4.60;;
9541;SDS011;4809;48.224;8.572;2024-01-30T08:07:07;5.57;;;4.13;;
9541;SDS011;4809;48.224;8.572;2024-01-30T08:09:32;6.67;;;4.30;;
9541;SDS011;4809;48.224;8.572;2024-01-30T08:11:58;4.83;;;3.60;;
9541;SDS011;4809;48.224;8.572;2024-01-30T08:14:23;4.90;;;3.63;;
9541;SDS011;4809;48.224;8.572;2024-01-30T08:16:49;6.30;;;3.73;;
9541;SDS011;4809;48.224;8.572;2024-01-30T08:19:14;6.13;;;3.50;;
9541;SDS011;4809;48.224;8.572;2024-01-30T08:21:40;6.03;;;4.30;;
9541;SDS011;4809;48.224;8.572;2024-01-30T08:24:05;8.03;;;5.23;;
9541;SDS011;4809;48.224;8.572;2024-01-30T08:26:32;6.80;;;4.80;;
9541;SDS011;4809;48.224;8.572;2024-01-30T08:28:57;7.00;;;5.23;;
9541;SDS011;4809;48.224;8.572;2024-01-30T08:31:23;8.20;;;5.60;;
9541;SDS011;4809;48.224;8.572;2024-01-30T08:33:48;8.07;;;6.20;;
9541;SDS011;4809;48.224;8.572;2024-01-30T08:36:14;11.03;;;8.07;;
9541;SDS011;4809;48.224;8.572;2024-01-30T08:38:40;13.17;;;9.13;;
9541;SDS011;4809;48.224;8.572;2024-01-30T08:41:05;11.50;;;7.72;;
9541;SDS011;4809;48.224;8.572;2024-01-30T08:43:32;11.35;;;8.20;;
9541;SDS011;4809;48.224;8.572;2024-01-30T08:46:01;14.35;;;9.90;;
9541;SDS011;4809;48.224;8.572;2024-01-30T08:48:26;14.18;;;9.00;;
9541;SDS011;4809;48.224;8.572;2024-01-30T08:50:52;13.60;;;9.55;;
9541;SDS011;4809;48.224;8.572;2024-01-30T08:53:17;12.75;;;9.20;;
9541;SDS011;4809;48.224;8.572;2024-01-30T08:55:43;11.88;;;9.10;;
9541;SDS011;4809;48.224;8.572;2024-01-30T08:58:08;13.45;;;9.45;;
9541;SDS011;4809;48.224;8.572;2024-01-30T09:00:34;14.70;;;9.15;;
9541;SDS011;4809;48.224;8.572;2024-01-30T09:02:59;13.50;;;9.07;;
9541;SDS011;4809;48.224;8.572;2024-01-30T09:05:25;11.18;;;8.43;;
9541;SDS011;4809;48.224;8.572;2024-01-30T09:07:50;11.00;;;7.97;;
9541;SDS011;4809;48.224;8.572;2024-01-30T09:10:16;14.43;;;10.05;;
9541;SDS011;4809;48.224;8.572;2024-01-30T09:12:41;13.75;;;9.50;;
9541;SDS011;4809;48.224;8.572;2024-01-30T09:15:07;11.80;;;8.23;;
9541;SDS011;4809;48.224;8.572;2024-01-30T09:17:32;9.95;;;7.00;;
9541;SDS011;4809;48.224;8.572;2024-01-30T09:19:58;9.77;;;6.90;;
9541;SDS011;4809;48.224;8.572;2024-01-30T09:22:24;9.57;;;7.03;;
9541;SDS011;4809;48.224;8.572;2024-01-30T09:24:49;9.75;;;6.50;;
9541;SDS011;4809;48.224;8.572;2024-01-30T09:27:14;8.68;;;6.32;;
9541;SDS011;4809;48.224;8.572;2024-01-30T09:29:40;9.55;;;5.95;;
9541;SDS011;4809;48.224;8.572;2024-01-30T09:32:06;6.38;;;4.65;;
9541;SDS011;4809;48.224;8.572;2024-01-30T09:34:31;4.22;;;3.08;;
9541;SDS011;4809;48.224;8.572;2024-01-30T09:36:57;2.90;;;2.40;;
9541;SDS011;4809;48.224;8.572;2024-01-30T09:39:23;3.75;;;2.30;;
9541;SDS011;4809;48.224;8.572;2024-01-30T09:41:49;3.03;;;2.60;;
9541;SDS011;4809;48.224;8.572;2024-01-30T09:44:20;4.90;;;2.88;;
9541;SDS011;4809;48.224;8.572;2024-01-30T09:46:47;2.90;;;2.42;;
9541;SDS011;4809;48.224;8.572;2024-01-30T09:49:13;3.75;;;2.50;;
9541;SDS011;4809;48.224;8.572;2024-01-30T09:51:39;3.10;;;2.42;;
9541;SDS011;4809;48.224;8.572;2024-01-30T09:54:05;2.85;;;2.25;;
9541;SDS011;4809;48.224;8.572;2024-01-30T09:56:31;3.58;;;2.30;;
9541;SDS011;4809;48.224;8.572;2024-01-30T09:58:57;2.50;;;2.30;;
9541;SDS011;4809;48.224;8.572;2024-01-30T10:01:23;2.83;;;2.30;;
9541;SDS011;4809;48.224;8.572;2024-01-30T10:03:50;2.70;;;2.38;;
9541;SDS011;4809;48.224;8.572;2024-01-30T10:06:17;3.13;;;2.30;;
9541;SDS011;4809;48.224;8.572;2024-01-30T10:08:42;3.67;;;2.42;;
9541;SDS011;4809;48.224;8.572;2024-01-30T10:11:09;2.60;;;2.40;;
9541;SDS011;4809;48.224;8.572;2024-01-30T10:13:34;3.58;;;2.30;;
9541;SDS011;4809;48.224;8.572;2024-01-30T10:16:00;3.17;;;2.50;;
9541;SDS011;4809;48.224;8.572;2024-01-30T10:18:28;3.63;;;2.40;;
9541;SDS011;4809;48.224;8.572;2024-01-30T10:20:53;3.05;;;2.25;;
9541;SDS011;4809;48.224;8.572;2024-01-30T10:23:19;2.97;;;2.40;;
9541;SDS011;4809;48.224;8.572;2024-01-30T10:25:45;3.83;;;2.38;;
9541;SDS011;4809;48.224;8.572;2024-01-30T10:28:11;2.72;;;2.45;;
9541;SDS011;4809;48.224;8.572;2024-01-30T10:30:36;3.10;;;2.15;;
9541;SDS011;4809;48.224;8.572;2024-01-30T10:33:02;3.28;;;2.20;;
9541;SDS011;4809;48.224;8.572;2024-01-30T10:35:27;2.47;;;2.28;;
9541;SDS011;4809;48.224;8.572;2024-01-30T10:37:52;3.10;;;2.72;;
9541;SDS011;4809;48.224;8.572;2024-01-30T10:40:22;3.05;;;2.47;;
9541;SDS011;4809;48.224;8.572;2024-01-30T10:42:53;3.15;;;2.30;;
9541;SDS011;4809;48.224;8.572;2024-01-30T10:45:21;2.65;;;2.30;;
9541;SDS011;4809;48.224;8.572;2024-01-30T10:47:50;2.67;;;2.20;;
9541;SDS011;4809;48.224;8.572;2024-01-30T10:50:18;2.53;;;2.33;;
9541;SDS011;4809;48.224;8.572;2024-01-30T10:52:44;2.83;;;2.30;;
9541;SDS011;4809;48.224;8.572;2024-01-30T10:55:10;2.40;;;2.20;;
9541;SDS011;4809;48.224;8.572;2024-01-30T10:57:35;3.13;;;2.35;;
9541;SDS011;4809;48.224;8.572;2024-01-30T11:00:02;2.47;;;2.10;;
9541;SDS011;4809;48.224;8.572;2024-01-30T11:02:35;2.35;;;2.05;;
9541;SDS011;4809;48.224;8.572;2024-01-30T11:05:02;2.35;;;2.03;;
9541;SDS011;4809;48.224;8.572;2024-01-30T11:07:29;2.08;;;1.88;;
9541;SDS011;4809;48.224;8.572;2024-01-30T11:12:23;3.05;;;2.00;;
9541;SDS011;4809;48.224;8.572;2024-01-30T11:15:04;2.53;;;2.00;;
9541;SDS011;4809;48.224;8.572;2024-01-30T11:17:40;3.50;;;2.05;;
9541;SDS011;4809;48.224;8.572;2024-01-30T11:20:20;2.50;;;2.00;;
9541;SDS011;4809;48.224;8.572;2024-01-30T11:22:47;2.08;;;1.88;;
9541;SDS011;4809;48.224;8.572;2024-01-30T11:25:13;2.90;;;2.22;;
9541;SDS011;4809;48.224;8.572;2024-01-30T11:27:40;2.70;;;2.50;;
9541;SDS011;4809;48.224;8.572;2024-01-30T11:30:06;4.38;;;2.80;;
9541;SDS011;4809;48.224;8.572;2024-01-30T11:32:34;5.22;;;3.88;;
9541;SDS011;4809;48.224;8.572;2024-01-30T11:34:59;4.78;;;4.22;;
9541;SDS011;4809;48.224;8.572;2024-01-30T11:37:25;5.55;;;5.05;;
9541;SDS011;4809;48.224;8.572;2024-01-30T11:39:51;3.33;;;2.72;;
9541;SDS011;4809;48.224;8.572;2024-01-30T11:42:18;2.85;;;2.65;;
9541;SDS011;4809;48.224;8.572;2024-01-30T11:44:47;3.38;;;2.83;;
9541;SDS011;4809;48.224;8.572;2024-01-30T11:47:13;2.50;;;2.30;;
9541;SDS011;4809;48.224;8.572;2024-01-30T11:49:43;3.00;;;2.40;;
9541;SDS011;4809;48.224;8.572;2024-01-30T11:52:08;3.88;;;2.80;;
9541;SDS011;4809;48.224;8.572;2024-01-30T11:54:34;2.92;;;2.60;;
9541;SDS011;4809;48.224;8.572;2024-01-30T11:56:59;3.72;;;2.80;;
9541;SDS011;4809;48.224;8.572;2024-01-30T11:59:25;3.50;;;2.63;;
9541;SDS011;4809;48.224;8.572;2024-01-30T12:01:51;3.63;;;2.67;;
9541;SDS011;4809;48.224;8.572;2024-01-30T12:04:17;4.15;;;2.70;;
9541;SDS011;4809;48.224;8.572;2024-01-30T12:06:43;4.50;;;2.90;;
9541;SDS011;4809;48.224;8.572;2024-01-30T12:09:09;4.10;;;3.00;;
9541;SDS011;4809;48.224;8.572;2024-01-30T12:11:43;4.60;;;3.17;;
9541;SDS011;4809;48.224;8.572;2024-01-30T12:14:12;3.80;;;2.90;;
9541;SDS011;4809;48.224;8.572;2024-01-30T12:16:37;4.13;;;3.00;;
9541;SDS011;4809;48.224;8.572;2024-01-30T12:19:03;3.47;;;3.10;;
9541;SDS011;4809;48.224;8.572;2024-01-30T12:21:28;3.20;;;2.90;;
9541;SDS011;4809;48.224;8.572;2024-01-30T12:23:56;4.53;;;3.33;;
9541;SDS011;4809;48.224;8.572;2024-01-30T12:26:23;3.45;;;3.10;;
9541;SDS011;4809;48.224;8.572;2024-01-30T12:28:50;4.72;;;3.47;;
9541;SDS011;4809;48.224;8.572;2024-01-30T12:31:16;4.40;;;3.20;;
9541;SDS011;4809;48.224;8.572;2024-01-30T12:33:41;3.75;;;3.28;;
9541;SDS011;4809;48.224;8.572;2024-01-30T12:36:07;4.53;;;3.10;;
9541;SDS011;4809;48.224;8.572;2024-01-30T12:38:32;3.78;;;2.95;;
9541;SDS011;4809;48.224;8.572;2024-01-30T12:40:58;4.80;;;3.17;;
9541;SDS011;4809;48.224;8.572;2024-01-30T12:43:26;4.57;;;3.15;;
9541;SDS011;4809;48.224;8.572;2024-01-30T12:45:54;4.18;;;2.95;;
9541;SDS011;4809;48.224;8.572;2024-01-30T12:48:20;3.50;;;2.90;;
9541;SDS011;4809;48.224;8.572;2024-01-30T12:50:45;3.63;;;3.17;;
9541;SDS011;4809;48.224;8.572;2024-01-30T12:53:12;3.35;;;3.00;;
9541;SDS011;4809;48.224;8.572;2024-01-30T12:55:38;4.18;;;3.78;;
9541;SDS011;4809;48.224;8.572;2024-01-30T12:58:03;3.58;;;2.97;;
9541;SDS011;4809;48.224;8.572;2024-01-30T13:00:29;3.10;;;2.80;;
9541;SDS011;4809;48.224;8.572;2024-01-30T13:02:54;4.03;;;3.05;;
9541;SDS011;4809;48.224;8.572;2024-01-30T13:05:19;3.65;;;3.10;;
9541;SDS011;4809;48.224;8.572;2024-01-30T13:07:45;3.17;;;2.63;;
9541;SDS011;4809;48.224;8.572;2024-01-30T13:10:10;3.15;;;2.85;;
9541;SDS011;4809;48.224;8.572;2024-01-30T13:12:36;3.88;;;2.85;;
9541;SDS011;4809;48.224;8.572;2024-01-30T13:15:03;4.32;;;2.85;;
9541;SDS011;4809;48.224;8.572;2024-01-30T13:17:30;3.55;;;2.85;;
9541;SDS011;4809;48.224;8.572;2024-01-30T13:19:56;3.80;;;2.83;;
9541;SDS011;4809;48.224;8.572;2024-01-30T13:22:22;2.67;;;2.47;;
9541;SDS011;4809;48.224;8.572;2024-01-30T13:24:47;3.03;;;2.60;;
9541;SDS011;4809;48.224;8.572;2024-01-30T13:27:13;3.22;;;2.92;;
9541;SDS011;4809;48.224;8.572;2024-01-30T13:29:38;4.13;;;3.20;;
9541;SDS011;4809;48.224;8.572;2024-01-30T13:32:04;3.63;;;2.90;;
9541;SDS011;4809;48.224;8.572;2024-01-30T13:34:29;3.40;;;3.10;;
9541;SDS011;4809;48.224;8.572;2024-01-30T13:36:54;4.72;;;2.80;;
9541;SDS011;4809;48.224;8.572;2024-01-30T13:39:20;3.42;;;2.88;;
9541;SDS011;4809;48.224;8.572;2024-01-30T13:41:45;3.10;;;2.80;;
9541;SDS011;4809;48.224;8.572;2024-01-30T13:44:11;3.10;;;2.78;;
9541;SDS011;4809;48.224;8.572;2024-01-30T13:46:36;3.03;;;2.70;;
9541;SDS011;4809;48.224;8.572;2024-01-30T13:49:02;2.90;;;2.53;;
9541;SDS011;4809;48.224;8.572;2024-01-30T13:51:30;3.35;;;2.60;;
9541;SDS011;4809;48.224;8.572;2024-01-30T13:53:56;2.97;;;2.60;;
9541;SDS011;4809;48.224;8.572;2024-01-30T13:56:21;3.20;;;2.90;;
9541;SDS011;4809;48.224;8.572;2024-01-30T13:58:50;3.70;;;3.00;;
9541;SDS011;4809;48.224;8.572;2024-01-30T14:01:15;3.00;;;2.70;;
9541;SDS011;4809;48.224;8.572;2024-01-30T14:03:41;3.30;;;3.00;;
9541;SDS011;4809;48.224;8.572;2024-01-30T14:06:07;3.63;;;2.72;;
9541;SDS011;4809;48.224;8.572;2024-01-30T14:08:32;2.97;;;2.67;;
9541;SDS011;4809;48.224;8.572;2024-01-30T14:10:57;3.25;;;2.88;;
9541;SDS011;4809;48.224;8.572;2024-01-30T14:13:23;4.10;;;3.50;;
9541;SDS011;4809;48.224;8.572;2024-01-30T14:15:50;4.72;;;4.15;;
9541;SDS011;4809;48.224;8.572;2024-01-30T14:18:15;4.53;;;3.40;;
9541;SDS011;4809;48.224;8.572;2024-01-30T14:20:42;4.65;;;3.58;;
9541;SDS011;4809;48.224;8.572;2024-01-30T14:23:07;5.00;;;3.67;;
9541;SDS011;4809;48.224;8.572;2024-01-30T14:25:32;4.68;;;3.53;;
9541;SDS011;4809;48.224;8.572;2024-01-30T14:27:58;5.15;;;4.47;;
9541;SDS011;4809;48.224;8.572;2024-01-30T14:30:23;7.47;;;4.65;;
9541;SDS011;4809;48.224;8.572;2024-01-30T14:32:49;5.47;;;4.22;;
9541;SDS011;4809;48.224;8.572;2024-01-30T14:35:15;4.28;;;3.50;;
9541;SDS011;4809;48.224;8.572;2024-01-30T14:37:41;5.10;;;4.10;;
9541;SDS011;4809;48.224;8.572;2024-01-30T14:40:07;6.28;;;3.97;;
9541;SDS011;4809;48.224;8.572;2024-01-30T14:42:33;5.25;;;4.40;;
9541;SDS011;4809;48.224;8.572;2024-01-30T14:44:58;7.85;;;4.53;;
9541;SDS011;4809;48.224;8.572;2024-01-30T14:47:24;5.90;;;4.97;;
9541;SDS011;4809;48.224;8.572;2024-01-30T14:49:50;5.65;;;4.30;;
9541;SDS011;4809;48.224;8.572;2024-01-30T14:52:16;4.85;;;3.85;;
9541;SDS011;4809;48.224;8.572;2024-01-30T14:54:41;4.35;;;3.63;;
9541;SDS011;4809;48.224;8.572;2024-01-30T14:57:08;4.30;;;3.28;;
9541;SDS011;4809;48.224;8.572;2024-01-30T14:59:33;5.35;;;3.65;;
9541;SDS011;4809;48.224;8.572;2024-01-30T15:01:59;4.20;;;3.50;;
9541;SDS011;4809;48.224;8.572;2024-01-30T15:04:24;8.55;;;5.55;;
9541;SDS011;4809;48.224;8.572;2024-01-30T15:06:50;4.50;;;3.72;;